sensor_id;sensor_type;location;lat;lon;timestamp;pressure;altitude;pressure_sealevel;temperature;humidity
63500;BME280;49654;51.142;14.924;2023-12-20T00:02:01;98687.91;;;7.50;83.38
63500;BME280;49654;51.142;14.924;2023-12-20T00:04:28;98693.50;;;7.53;83.23
63500;BME280;49654;51.142;14.924;2023-12-20T00:06:55;98689.81;;;7.48;83.03
63500;BME280;49654;51.142;14.924;2023-12-20T00:09:22;98688.50;;;7.60;82.91
63500;BME280;49654;51.142;14.924;2023-12-20T00:11:49;98676.88;;;7.64;83.18
63500;BME280;49654;51.142;14.924;2023-12-20T00:14:16;98673.31;;;7.57;82.94
63500;BME280;49654;51.142;14.924;2023-12-20T00:16:43;98674.31;;;7.48;83.60
63500;BME280;49654;51.142;14.924;2023-12-20T00:19:11;98682.53;;;7.60;83.49
63500;BME280;49654;51.142;14.924;2023-12-20T00:21:38;98630.97;;;7.27;83.55
63500;BME280;49654;51.142;14.924;2023-12-20T00:24:05;98667.34;;;7.57;83.67
63500;BME280;49654;51.142;14.924;2023-12-20T00:26:32;98674.31;;;7.56;83.72
63500;BME280;49654;51.142;14.924;2023-12-20T00:28:58;98656.69;;;7.60;83.32
63500;BME280;49654;51.142;14.924;2023-12-20T00:31:25;98659.44;;;7.58;82.98
63500;BME280;49654;51.142;14.924;2023-12-20T00:33:52;98667.22;;;7.58;83.43
63500;BME280;49654;51.142;14.924;2023-12-20T00:36:20;98596.97;;;7.15;83.08
63500;BME280;49654;51.142;14.924;2023-12-20T00:38:47;98663.97;;;7.56;83.08
63500;BME280;49654;51.142;14.924;2023-12-20T00:41:15;98678.88;;;7.46;83.72
63500;BME280;49654;51.142;14.924;2023-12-20T00:43:42;98644.25;;;7.16;83.86
63500;BME280;49654;51.142;14.924;2023-12-20T00:46:10;98652.78;;;7.24;83.85
63500;BME280;49654;51.142;14.924;2023-12-20T00:48:37;98607.66;;;6.96;84.38
63500;BME280;49654;51.142;14.924;2023-12-20T00:51:04;98639.91;;;7.08;84.12
63500;BME280;49654;51.142;14.924;2023-12-20T00:53:32;98657.13;;;7.24;84.09
63500;BME280;49654;51.142;14.924;2023-12-20T00:55:59;98650.22;;;7.16;83.49
63500;BME280;49654;51.142;14.924;2023-12-20T00:58:26;98663.94;;;7.09;83.98
63500;BME280;49654;51.142;14.924;2023-12-20T01:00:53;98632.34;;;6.98;83.20
63500;BME280;49654;51.142;14.924;2023-12-20T01:03:20;98655.00;;;7.27;83.02
63500;BME280;49654;51.142;14.924;2023-12-20T01:05:46;98659.06;;;7.22;83.19
63500;BME280;49654;51.142;14.924;2023-12-20T01:08:13;98652.13;;;7.14;83.08
63500;BME280;49654;51.142;14.924;2023-12-20T01:10:41;98640.38;;;7.20;82.90
63500;BME280;49654;51.142;14.924;2023-12-20T01:13:08;98649.84;;;7.19;83.44
63500;BME280;49654;51.142;14.924;2023-12-20T01:15:35;98646.72;;;7.40;82.59
63500;BME280;49654;51.142;14.924;2023-12-20T01:18:03;98611.25;;;7.34;82.30
63500;BME280;49654;51.142;14.924;2023-12-20T01:20:30;98595.69;;;7.03;82.90
63500;BME280;49654;51.142;14.924;2023-12-20T01:22:57;98570.56;;;6.89;83.25
63500;BME280;49654;51.142;14.924;2023-12-20T01:25:24;98557.81;;;6.87;83.35
63500;BME280;49654;51.142;14.924;2023-12-20T01:27:52;98631.59;;;7.37;82.99
63500;BME280;49654;51.142;14.924;2023-12-20T01:30:19;98618.34;;;7.32;83.08
63500;BME280;49654;51.142;14.924;2023-12-20T01:32:46;98506.56;;;6.68;82.65
63500;BME280;49654;51.142;14.924;2023-12-20T01:35:13;98614.53;;;7.28;82.85
63500;BME280;49654;51.142;14.924;2023-12-20T01:37:39;98534.50;;;6.64;82.83
63500;BME280;49654;51.142;14.924;2023-12-20T01:40:06;98615.00;;;7.23;82.90
63500;BME280;49654;51.142;14.924;2023-12-20T01:42:33;98609.19;;;7.30;82.70
63500;BME280;49654;51.142;14.924;2023-12-20T01:45:02;98603.94;;;7.07;82.98
63500;BME280;49654;51.142;14.924;2023-12-20T01:47:30;98605.38;;;7.01;83.24
63500;BME280;49654;51.142;14.924;2023-12-20T01:49:56;98606.03;;;7.03;83.21
63500;BME280;49654;51.142;14.924;2023-12-20T01:52:25;98575.41;;;6.92;83.03
63500;BME280;49654;51.142;14.924;2023-12-20T01:54:53;98600.84;;;7.11;82.66
63500;BME280;49654;51.142;14.924;2023-12-20T01:57:22;98544.94;;;6.79;82.72
63500;BME280;49654;51.142;14.924;2023-12-20T01:59:49;98513.06;;;6.64;82.66
63500;BME280;49654;51.142;14.924;2023-12-20T02:02:18;98579.59;;;6.85;82.91
63500;BME280;49654;51.142;14.924;2023-12-20T02:04:45;98588.25;;;7.08;82.75
63500;BME280;49654;51.142;14.924;2023-12-20T02:07:13;98584.25;;;6.97;82.88
63500;BME280;49654;51.142;14.924;2023-12-20T02:09:40;98589.25;;;7.07;82.65
63500;BME280;49654;51.142;14.924;2023-12-20T02:12:07;98577.34;;;6.90;82.91
63500;BME280;49654;51.142;14.924;2023-12-20T02:14:34;98587.47;;;7.08;82.62
63500;BME280;49654;51.142;14.924;2023-12-20T02:17:01;98588.44;;;7.07;82.70
63500;BME280;49654;51.142;14.924;2023-12-20T02:19:29;98507.56;;;6.59;82.62
63500;BME280;49654;51.142;14.924;2023-12-20T02:22:09;98574.56;;;6.99;82.53
63500;BME280;49654;51.142;14.924;2023-12-20T02:24:36;98586.66;;;7.07;82.33
63500;BME280;49654;51.142;14.924;2023-12-20T02:27:03;98567.47;;;6.93;82.33
63500;BME280;49654;51.142;14.924;2023-12-20T02:29:32;98572.84;;;6.75;82.35
63500;BME280;49654;51.142;14.924;2023-12-20T02:31:59;98584.13;;;6.91;81.71
63500;BME280;49654;51.142;14.924;2023-12-20T02:34:26;98571.19;;;6.99;82.00
63500;BME280;49654;51.142;14.924;2023-12-20T02:36:53;98574.13;;;6.88;82.30
63500;BME280;49654;51.142;14.924;2023-12-20T02:39:22;98483.59;;;6.42;81.79
63500;BME280;49654;51.142;14.924;2023-12-20T02:41:49;98575.41;;;6.92;82.27
63500;BME280;49654;51.142;14.924;2023-12-20T02:44:16;98504.38;;;6.57;82.29
63500;BME280;49654;51.142;14.924;2023-12-20T02:46:43;98464.31;;;6.13;82.27
63500;BME280;49654;51.142;14.924;2023-12-20T02:49:11;98469.56;;;6.36;82.07
63500;BME280;49654;51.142;14.924;2023-12-20T02:51:38;98487.94;;;6.49;81.55
63500;BME280;49654;51.142;14.924;2023-12-20T02:54:05;98541.72;;;6.77;82.00
63500;BME280;49654;51.142;14.924;2023-12-20T02:56:33;98550.88;;;6.88;81.99
63500;BME280;49654;51.142;14.924;2023-12-20T02:59:01;98544.94;;;6.79;82.08
63500;BME280;49654;51.142;14.924;2023-12-20T03:01:31;98546.38;;;6.90;82.02
63500;BME280;49654;51.142;14.924;2023-12-20T03:03:57;98557.00;;;6.95;82.30
63500;BME280;49654;51.142;14.924;2023-12-20T03:06:24;98567.03;;;6.82;82.72
63500;BME280;49654;51.142;14.924;2023-12-20T03:08:51;98434.19;;;5.97;82.62
63500;BME280;49654;51.142;14.924;2023-12-20T03:11:18;98561.91;;;6.73;83.33
63500;BME280;49654;51.142;14.924;2023-12-20T03:13:47;98541.91;;;6.59;83.32
63500;BME280;49654;51.142;14.924;2023-12-20T03:16:14;98558.50;;;6.73;83.19
63500;BME280;49654;51.142;14.924;2023-12-20T03:18:42;98534.16;;;6.59;82.99
63500;BME280;49654;51.142;14.924;2023-12-20T03:21:09;98539.81;;;6.63;83.00
63500;BME280;49654;51.142;14.924;2023-12-20T03:23:36;98545.63;;;6.73;82.75
63500;BME280;49654;51.142;14.924;2023-12-20T03:26:03;98525.63;;;6.50;82.80
63500;BME280;49654;51.142;14.924;2023-12-20T03:28:33;98551.41;;;6.75;82.35
63500;BME280;49654;51.142;14.924;2023-12-20T03:31:02;98549.31;;;6.70;82.89
63500;BME280;49654;51.142;14.924;2023-12-20T03:33:29;98539.38;;;6.51;82.52
63500;BME280;49654;51.142;14.924;2023-12-20T03:35:56;98535.50;;;6.39;83.32
63500;BME280;49654;51.142;14.924;2023-12-20T03:38:22;98552.22;;;6.59;82.98
63500;BME280;49654;51.142;14.924;2023-12-20T03:40:50;98547.41;;;6.64;82.32
63500;BME280;49654;51.142;14.924;2023-12-20T03:43:17;98566.75;;;6.60;82.53
63500;BME280;49654;51.142;14.924;2023-12-20T03:45:44;98553.19;;;6.58;82.49
63500;BME280;49654;51.142;14.924;2023-12-20T03:48:12;98560.31;;;6.56;82.57
63500;BME280;49654;51.142;14.924;2023-12-20T03:50:39;98543.84;;;6.57;83.06
63500;BME280;49654;51.142;14.924;2023-12-20T03:53:06;98545.44;;;6.74;82.68
63500;BME280;49654;51.142;14.924;2023-12-20T03:55:34;98513.59;;;6.35;82.42
63500;BME280;49654;51.142;14.924;2023-12-20T03:58:01;98518.38;;;6.54;82.70
63500;BME280;49654;51.142;14.924;2023-12-20T04:00:28;98541.59;;;6.62;82.54
63500;BME280;49654;51.142;14.924;2023-12-20T04:02:55;98403.91;;;5.83;82.19
63500;BME280;49654;51.142;14.924;2023-12-20T04:05:24;98521.44;;;6.58;82.23
63500;BME280;49654;51.142;14.924;2023-12-20T04:07:51;98541.88;;;6.67;82.40
63500;BME280;49654;51.142;14.924;2023-12-20T04:10:18;98543.03;;;6.65;82.46
63500;BME280;49654;51.142;14.924;2023-12-20T04:12:45;98479.13;;;6.03;83.42
63500;BME280;49654;51.142;14.924;2023-12-20T04:15:12;98524.22;;;6.40;83.05
63500;BME280;49654;51.142;14.924;2023-12-20T04:17:39;98497.81;;;6.13;82.98
63500;BME280;49654;51.142;14.924;2023-12-20T04:20:07;98476.88;;;6.08;83.27
63500;BME280;49654;51.142;14.924;2023-12-20T04:22:37;98516.00;;;6.36;83.28
63500;BME280;49654;51.142;14.924;2023-12-20T04:25:05;98474.59;;;5.89;83.64
63500;BME280;49654;51.142;14.924;2023-12-20T04:27:33;98443.03;;;5.78;83.73
63500;BME280;49654;51.142;14.924;2023-12-20T04:30:00;98452.38;;;5.88;83.54
63500;BME280;49654;51.142;14.924;2023-12-20T04:32:27;98507.47;;;6.11;84.01
63500;BME280;49654;51.142;14.924;2023-12-20T04:34:55;98518.25;;;6.39;83.25
63500;BME280;49654;51.142;14.924;2023-12-20T04:37:22;98508.25;;;6.36;82.85
63500;BME280;49654;51.142;14.924;2023-12-20T04:39:50;98461.25;;;6.10;82.86
63500;BME280;49654;51.142;14.924;2023-12-20T04:42:17;98472.34;;;6.10;83.32
63500;BME280;49654;51.142;14.924;2023-12-20T04:44:44;98440.16;;;5.98;82.94
63500;BME280;49654;51.142;14.924;2023-12-20T04:47:11;98491.38;;;6.25;82.86
63500;BME280;49654;51.142;14.924;2023-12-20T04:49:38;98468.97;;;6.10;83.19
63500;BME280;49654;51.142;14.924;2023-12-20T04:52:05;98406.97;;;5.54;83.46
63500;BME280;49654;51.142;14.924;2023-12-20T04:54:32;98521.66;;;6.32;83.49
63500;BME280;49654;51.142;14.924;2023-12-20T04:57:01;98407.94;;;5.61;83.84
63500;BME280;49654;51.142;14.924;2023-12-20T04:59:28;98539.69;;;6.40;84.13
63500;BME280;49654;51.142;14.924;2023-12-20T05:01:55;98430.78;;;5.72;83.99
63500;BME280;49654;51.142;14.924;2023-12-20T05:04:23;98543.88;;;6.49;83.96
63500;BME280;49654;51.142;14.924;2023-12-20T05:06:50;98550.31;;;6.37;84.62
63500;BME280;49654;51.142;14.924;2023-12-20T05:09:17;98488.13;;;6.07;84.57
63500;BME280;49654;51.142;14.924;2023-12-20T05:11:44;98535.63;;;6.53;84.21
63500;BME280;49654;51.142;14.924;2023-12-20T05:14:12;98539.19;;;6.44;84.32
63500;BME280;49654;51.142;14.924;2023-12-20T05:16:39;98545.16;;;6.53;83.84
63500;BME280;49654;51.142;14.924;2023-12-20T05:19:06;98541.13;;;6.42;84.44
63500;BME280;49654;51.142;14.924;2023-12-20T05:21:33;98543.69;;;6.50;84.50
63500;BME280;49654;51.142;14.924;2023-12-20T05:24:00;98461.25;;;5.93;84.75
63500;BME280;49654;51.142;14.924;2023-12-20T05:26:27;98494.09;;;6.16;84.76
63500;BME280;49654;51.142;14.924;2023-12-20T05:28:55;98544.53;;;6.43;84.63
63500;BME280;49654;51.142;14.924;2023-12-20T05:31:23;98516.00;;;6.44;84.46
63500;BME280;49654;51.142;14.924;2023-12-20T05:33:50;98420.47;;;5.89;83.42
63500;BME280;49654;51.142;14.924;2023-12-20T05:36:18;98548.00;;;6.74;83.70
63500;BME280;49654;51.142;14.924;2023-12-20T05:38:46;98395.88;;;5.70;83.65
63500;BME280;49654;51.142;14.924;2023-12-20T05:41:13;98510.34;;;6.41;83.98
63500;BME280;49654;51.142;14.924;2023-12-20T05:43:40;98556.06;;;6.71;83.74
63500;BME280;49654;51.142;14.924;2023-12-20T05:46:09;98551.91;;;6.62;83.91
63500;BME280;49654;51.142;14.924;2023-12-20T05:48:38;98551.78;;;6.56;84.57
63500;BME280;49654;51.142;14.924;2023-12-20T05:51:05;98556.75;;;6.49;85.07
63500;BME280;49654;51.142;14.924;2023-12-20T05:53:32;98560.78;;;6.60;84.73
63500;BME280;49654;51.142;14.924;2023-12-20T05:55:59;98561.44;;;6.53;84.64
63500;BME280;49654;51.142;14.924;2023-12-20T05:58:26;98503.47;;;6.17;85.12
63500;BME280;49654;51.142;14.924;2023-12-20T06:00:53;98575.59;;;6.66;84.68
63500;BME280;49654;51.142;14.924;2023-12-20T06:03:20;98563.69;;;6.65;84.50
63500;BME280;49654;51.142;14.924;2023-12-20T06:05:48;98506.00;;;6.25;84.80
63500;BME280;49654;51.142;14.924;2023-12-20T06:08:15;98436.91;;;5.71;84.80
63500;BME280;49654;51.142;14.924;2023-12-20T06:10:42;98569.97;;;6.62;84.83
63500;BME280;49654;51.142;14.924;2023-12-20T06:13:08;98558.84;;;6.62;84.82
63500;BME280;49654;51.142;14.924;2023-12-20T06:15:35;98562.38;;;6.77;84.38
63500;BME280;49654;51.142;14.924;2023-12-20T06:18:03;98540.16;;;6.60;84.20
63500;BME280;49654;51.142;14.924;2023-12-20T06:20:29;98490.03;;;6.46;83.58
63500;BME280;49654;51.142;14.924;2023-12-20T06:22:58;98485.72;;;6.38;83.54
63500;BME280;49654;51.142;14.924;2023-12-20T06:25:25;98569.13;;;6.78;83.87
63500;BME280;49654;51.142;14.924;2023-12-20T06:27:52;98578.66;;;6.86;83.60
63500;BME280;49654;51.142;14.924;2023-12-20T06:30:19;98584.81;;;6.68;84.82
63500;BME280;49654;51.142;14.924;2023-12-20T06:32:45;98592.50;;;6.85;84.03
63500;BME280;49654;51.142;14.924;2023-12-20T06:35:13;98590.41;;;6.88;83.66
63500;BME280;49654;51.142;14.924;2023-12-20T06:37:40;98593.16;;;6.87;84.06
63500;BME280;49654;51.142;14.924;2023-12-20T06:40:11;98593.78;;;6.81;84.29
63500;BME280;49654;51.142;14.924;2023-12-20T06:42:38;98532.25;;;6.45;83.81
63500;BME280;49654;51.142;14.924;2023-12-20T06:45:05;98597.63;;;7.01;83.79
63500;BME280;49654;51.142;14.924;2023-12-20T06:47:32;98599.28;;;6.94;83.53
63500;BME280;49654;51.142;14.924;2023-12-20T06:49:59;98607.50;;;6.89;83.63
63500;BME280;49654;51.142;14.924;2023-12-20T06:52:26;98564.50;;;6.49;84.19
63500;BME280;49654;51.142;14.924;2023-12-20T06:54:53;98610.91;;;6.82;84.44
63500;BME280;49654;51.142;14.924;2023-12-20T06:57:21;98590.28;;;6.65;83.96
63500;BME280;49654;51.142;14.924;2023-12-20T06:59:49;98615.41;;;6.80;83.86
63500;BME280;49654;51.142;14.924;2023-12-20T07:02:17;98560.16;;;6.25;84.32
63500;BME280;49654;51.142;14.924;2023-12-20T07:04:44;98506.97;;;5.83;84.82
63500;BME280;49654;51.142;14.924;2023-12-20T07:07:12;98619.47;;;6.66;84.98
63500;BME280;49654;51.142;14.924;2023-12-20T07:09:38;98540.97;;;6.03;85.34
63500;BME280;49654;51.142;14.924;2023-12-20T07:12:08;98607.72;;;6.47;84.51
63500;BME280;49654;51.142;14.924;2023-12-20T07:14:36;98566.44;;;6.14;83.02
63500;BME280;49654;51.142;14.924;2023-12-20T07:17:03;98576.13;;;6.04;82.40
63500;BME280;49654;51.142;14.924;2023-12-20T07:19:30;98629.94;;;6.40;81.32
63500;BME280;49654;51.142;14.924;2023-12-20T07:21:58;98607.06;;;6.28;81.09
63500;BME280;49654;51.142;14.924;2023-12-20T07:24:25;98630.09;;;6.46;80.66
63500;BME280;49654;51.142;14.924;2023-12-20T07:26:52;98612.53;;;6.50;81.12
63500;BME280;49654;51.142;14.924;2023-12-20T07:29:19;98622.66;;;6.76;80.44
63500;BME280;49654;51.142;14.924;2023-12-20T07:31:47;98607.06;;;6.53;81.35
63500;BME280;49654;51.142;14.924;2023-12-20T07:34:14;98601.25;;;6.59;81.49
63500;BME280;49654;51.142;14.924;2023-12-20T07:36:41;98628.19;;;6.81;81.65
63500;BME280;49654;51.142;14.924;2023-12-20T07:39:08;98626.22;;;6.75;82.39
63500;BME280;49654;51.142;14.924;2023-12-20T07:41:36;98629.94;;;6.81;82.64
63500;BME280;49654;51.142;14.924;2023-12-20T07:44:04;98633.34;;;6.81;82.81
63500;BME280;49654;51.142;14.924;2023-12-20T07:46:32;98640.59;;;6.86;82.88
63500;BME280;49654;51.142;14.924;2023-12-20T07:49:00;98611.25;;;6.54;83.67
63500;BME280;49654;51.142;14.924;2023-12-20T07:51:27;98628.00;;;6.83;83.91
63500;BME280;49654;51.142;14.924;2023-12-20T07:53:54;98632.50;;;6.89;83.29
63500;BME280;49654;51.142;14.924;2023-12-20T07:56:21;98636.72;;;6.90;83.30
63500;BME280;49654;51.142;14.924;2023-12-20T07:58:48;98630.56;;;6.91;82.78
63500;BME280;49654;51.142;14.924;2023-12-20T08:01:15;98619.59;;;6.81;81.93
63500;BME280;49654;51.142;14.924;2023-12-20T08:03:42;98642.81;;;7.05;81.27
63500;BME280;49654;51.142;14.924;2023-12-20T08:06:11;98645.06;;;7.00;80.61
63500;BME280;49654;51.142;14.924;2023-12-20T08:08:37;98645.34;;;7.30;79.79
63500;BME280;49654;51.142;14.924;2023-12-20T08:11:04;98644.06;;;7.17;79.80
63500;BME280;49654;51.142;14.924;2023-12-20T08:13:31;98654.22;;;7.11;80.27
63500;BME280;49654;51.142;14.924;2023-12-20T08:15:58;98641.31;;;7.11;79.42
63500;BME280;49654;51.142;14.924;2023-12-20T08:18:25;98615.41;;;6.96;79.17
63500;BME280;49654;51.142;14.924;2023-12-20T08:20:52;98544.84;;;6.40;78.94
63500;BME280;49654;51.142;14.924;2023-12-20T08:23:21;98598.00;;;6.90;78.96
63500;BME280;49654;51.142;14.924;2023-12-20T08:25:47;98646.94;;;7.31;78.45
63500;BME280;49654;51.142;14.924;2023-12-20T08:28:15;98657.75;;;7.34;78.10
63500;BME280;49654;51.142;14.924;2023-12-20T08:30:42;98643.25;;;7.25;78.14
63500;BME280;49654;51.142;14.924;2023-12-20T08:33:09;98613.44;;;6.98;78.30
63500;BME280;49654;51.142;14.924;2023-12-20T08:35:38;98561.91;;;6.57;78.15
63500;BME280;49654;51.142;14.924;2023-12-20T08:38:05;98650.84;;;7.10;77.74
63500;BME280;49654;51.142;14.924;2023-12-20T08:40:34;98646.69;;;6.85;78.58
63500;BME280;49654;51.142;14.924;2023-12-20T08:43:01;98624.00;;;6.64;78.24
63500;BME280;49654;51.142;14.924;2023-12-20T08:45:28;98536.31;;;5.98;78.28
63500;BME280;49654;51.142;14.924;2023-12-20T08:47:58;98655.41;;;6.84;78.10
63500;BME280;49654;51.142;14.924;2023-12-20T08:50:25;98642.84;;;6.72;77.86
63500;BME280;49654;51.142;14.924;2023-12-20T08:52:52;98616.72;;;6.67;76.79
63500;BME280;49654;51.142;14.924;2023-12-20T08:55:19;98616.56;;;6.69;76.21
63500;BME280;49654;51.142;14.924;2023-12-20T08:57:48;98558.84;;;6.45;76.00
63500;BME280;49654;51.142;14.924;2023-12-20T09:00:16;98517.94;;;6.26;75.85
63500;BME280;49654;51.142;14.924;2023-12-20T09:02:46;98634.25;;;6.96;75.36
63500;BME280;49654;51.142;14.924;2023-12-20T09:05:13;98642.56;;;7.31;75.54
63500;BME280;49654;51.142;14.924;2023-12-20T09:07:40;98620.06;;;7.48;73.85
63500;BME280;49654;51.142;14.924;2023-12-20T09:10:07;98650.91;;;7.89;74.29
63500;BME280;49654;51.142;14.924;2023-12-20T09:12:34;98578.91;;;7.46;74.05
63500;BME280;49654;51.142;14.924;2023-12-20T09:15:05;98653.75;;;8.02;74.36
63500;BME280;49654;51.142;14.924;2023-12-20T09:17:32;98634.25;;;7.91;74.02
63500;BME280;49654;51.142;14.924;2023-12-20T09:19:58;98647.50;;;8.19;73.47
63500;BME280;49654;51.142;14.924;2023-12-20T09:22:25;98595.13;;;7.71;73.69
63500;BME280;49654;51.142;14.924;2023-12-20T09:24:52;98609.63;;;7.72;73.99
63500;BME280;49654;51.142;14.924;2023-12-20T09:27:19;98563.28;;;7.40;73.71
63500;BME280;49654;51.142;14.924;2023-12-20T09:29:46;98625.22;;;7.56;74.44
63500;BME280;49654;51.142;14.924;2023-12-20T09:32:15;98649.03;;;7.74;73.29
63500;BME280;49654;51.142;14.924;2023-12-20T09:34:42;98648.47;;;7.87;73.40
63500;BME280;49654;51.142;14.924;2023-12-20T09:37:11;98642.28;;;7.96;73.64
63500;BME280;49654;51.142;14.924;2023-12-20T09:39:38;98641.88;;;7.85;72.88
63500;BME280;49654;51.142;14.924;2023-12-20T09:42:06;98586.47;;;7.56;72.79
63500;BME280;49654;51.142;14.924;2023-12-20T09:44:33;98630.22;;;7.89;72.52
63500;BME280;49654;51.142;14.924;2023-12-20T09:47:03;98640.03;;;7.62;72.90
63500;BME280;49654;51.142;14.924;2023-12-20T09:49:32;98626.16;;;7.63;72.38
63500;BME280;49654;51.142;14.924;2023-12-20T09:52:00;98626.84;;;7.49;72.94
63500;BME280;49654;51.142;14.924;2023-12-20T09:54:28;98634.91;;;7.54;72.44
63500;BME280;49654;51.142;14.924;2023-12-20T09:56:56;98587.75;;;7.52;72.03
63500;BME280;49654;51.142;14.924;2023-12-20T09:59:23;98621.09;;;7.70;72.37
63500;BME280;49654;51.142;14.924;2023-12-20T10:01:51;98564.28;;;7.31;71.84
63500;BME280;49654;51.142;14.924;2023-12-20T10:04:22;98495.81;;;6.56;71.82
63500;BME280;49654;51.142;14.924;2023-12-20T10:06:51;98575.91;;;7.35;71.62
63500;BME280;49654;51.142;14.924;2023-12-20T10:09:18;98508.06;;;7.10;69.99
63500;BME280;49654;51.142;14.924;2023-12-20T10:11:45;98589.97;;;7.63;69.77
63500;BME280;49654;51.142;14.924;2023-12-20T10:14:12;98597.16;;;7.84;69.95
63500;BME280;49654;51.142;14.924;2023-12-20T10:16:40;98574.97;;;8.13;69.52
63500;BME280;49654;51.142;14.924;2023-12-20T10:19:07;98583.03;;;8.41;68.03
63500;BME280;49654;51.142;14.924;2023-12-20T10:21:34;98579.38;;;8.04;67.00
63500;BME280;49654;51.142;14.924;2023-12-20T10:24:03;98579.44;;;7.96;68.20
63500;BME280;49654;51.142;14.924;2023-12-20T10:26:30;98579.84;;;8.08;68.71
63500;BME280;49654;51.142;14.924;2023-12-20T10:29:00;98528.03;;;8.01;67.21
63500;BME280;49654;51.142;14.924;2023-12-20T10:31:29;98599.69;;;8.76;65.85
63500;BME280;49654;51.142;14.924;2023-12-20T10:33:57;98591.47;;;8.72;66.96
63500;BME280;49654;51.142;14.924;2023-12-20T10:36:25;98508.31;;;8.00;67.42
63500;BME280;49654;51.142;14.924;2023-12-20T10:38:54;98542.91;;;8.60;66.30
63500;BME280;49654;51.142;14.924;2023-12-20T10:41:25;98576.38;;;8.61;66.72
63500;BME280;49654;51.142;14.924;2023-12-20T10:43:55;98498.44;;;7.81;67.10
63500;BME280;49654;51.142;14.924;2023-12-20T10:46:23;98576.13;;;8.10;66.87
63500;BME280;49654;51.142;14.924;2023-12-20T10:48:53;98550.38;;;8.17;67.88
63500;BME280;49654;51.142;14.924;2023-12-20T10:51:21;98569.97;;;8.11;67.81
63500;BME280;49654;51.142;14.924;2023-12-20T10:53:49;98549.91;;;8.13;67.27
63500;BME280;49654;51.142;14.924;2023-12-20T10:56:17;98563.88;;;8.04;66.73
63500;BME280;49654;51.142;14.924;2023-12-20T10:58:47;98480.00;;;7.61;68.15
63500;BME280;49654;51.142;14.924;2023-12-20T11:01:14;98522.94;;;7.93;68.12
63500;BME280;49654;51.142;14.924;2023-12-20T11:03:46;98497.84;;;7.70;66.69
63500;BME280;49654;51.142;14.924;2023-12-20T11:06:27;98560.72;;;8.17;67.35
63500;BME280;49654;51.142;14.924;2023-12-20T11:09:04;98531.41;;;8.24;67.40
63500;BME280;49654;51.142;14.924;2023-12-20T11:11:42;98529.66;;;8.17;66.08
63500;BME280;49654;51.142;14.924;2023-12-20T11:14:19;98480.75;;;7.69;66.74
63500;BME280;49654;51.142;14.924;2023-12-20T11:16:47;98556.75;;;8.06;66.56
63500;BME280;49654;51.142;14.924;2023-12-20T11:19:14;98467.31;;;7.51;66.91
63500;BME280;49654;51.142;14.924;2023-12-20T11:21:41;98542.31;;;8.12;66.97
63500;BME280;49654;51.142;14.924;2023-12-20T11:24:09;98527.66;;;8.04;67.00
63500;BME280;49654;51.142;14.924;2023-12-20T11:26:36;98541.19;;;8.14;66.92
63500;BME280;49654;51.142;14.924;2023-12-20T11:29:35;98536.75;;;8.23;66.14
63500;BME280;49654;51.142;14.924;2023-12-20T11:32:03;98533.56;;;8.36;66.65
63500;BME280;49654;51.142;14.924;2023-12-20T11:34:51;98447.59;;;7.96;65.96
63500;BME280;49654;51.142;14.924;2023-12-20T11:37:19;98548.63;;;8.09;65.99
63500;BME280;49654;51.142;14.924;2023-12-20T11:39:54;98515.13;;;8.16;66.95
63500;BME280;49654;51.142;14.924;2023-12-20T11:42:21;98479.78;;;7.93;65.48
63500;BME280;49654;51.142;14.924;2023-12-20T11:44:50;98453.66;;;7.65;65.15
63500;BME280;49654;51.142;14.924;2023-12-20T11:47:17;98518.38;;;8.33;65.21
63500;BME280;49654;51.142;14.924;2023-12-20T11:49:46;98516.09;;;8.38;64.38
63500;BME280;49654;51.142;14.924;2023-12-20T11:52:15;98491.22;;;8.37;64.70
63500;BME280;49654;51.142;14.924;2023-12-20T11:54:42;98479.66;;;8.10;65.09
63500;BME280;49654;51.142;14.924;2023-12-20T11:57:09;98471.81;;;7.80;65.93
63500;BME280;49654;51.142;14.924;2023-12-20T11:59:36;98498.28;;;8.20;64.96
63500;BME280;49654;51.142;14.924;2023-12-20T12:02:05;98457.00;;;8.12;64.56
63500;BME280;49654;51.142;14.924;2023-12-20T12:04:32;98459.34;;;7.84;64.57
63500;BME280;49654;51.142;14.924;2023-12-20T12:06:59;98496.75;;;8.11;63.79
63500;BME280;49654;51.142;14.924;2023-12-20T12:09:26;98448.69;;;8.01;63.75
63500;BME280;49654;51.142;14.924;2023-12-20T12:11:53;98430.66;;;7.70;62.81
63500;BME280;49654;51.142;14.924;2023-12-20T12:14:20;98506.91;;;8.35;63.17
63500;BME280;49654;51.142;14.924;2023-12-20T12:16:47;98507.84;;;8.19;62.81
63500;BME280;49654;51.142;14.924;2023-12-20T12:19:24;98505.53;;;8.24;63.52
63500;BME280;49654;51.142;14.924;2023-12-20T12:21:51;98503.31;;;8.36;62.21
63500;BME280;49654;51.142;14.924;2023-12-20T12:24:30;98486.31;;;8.42;62.05
63500;BME280;49654;51.142;14.924;2023-12-20T12:26:57;98465.34;;;8.51;62.87
63500;BME280;49654;51.142;14.924;2023-12-20T12:29:24;98388.16;;;8.25;60.67
63500;BME280;49654;51.142;14.924;2023-12-20T12:31:51;98470.53;;;8.81;60.61
63500;BME280;49654;51.142;14.924;2023-12-20T12:34:18;98469.66;;;8.74;60.87
63500;BME280;49654;51.142;14.924;2023-12-20T12:36:48;98425.56;;;8.52;60.77
63500;BME280;49654;51.142;14.924;2023-12-20T12:39:15;98445.09;;;8.55;60.69
63500;BME280;49654;51.142;14.924;2023-12-20T12:41:44;98439.63;;;8.94;59.83
63500;BME280;49654;51.142;14.924;2023-12-20T12:44:11;98445.22;;;9.13;60.90
63500;BME280;49654;51.142;14.924;2023-12-20T12:46:38;98378.56;;;8.85;58.08
63500;BME280;49654;51.142;14.924;2023-12-20T12:49:07;98448.78;;;9.69;57.17
63500;BME280;49654;51.142;14.924;2023-12-20T12:51:35;98445.38;;;9.69;57.04
63500;BME280;49654;51.142;14.924;2023-12-20T12:54:04;98442.78;;;9.26;57.07
63500;BME280;49654;51.142;14.924;2023-12-20T12:56:31;98435.88;;;8.97;57.14
63500;BME280;49654;51.142;14.924;2023-12-20T12:58:59;98440.88;;;8.69;59.20
63500;BME280;49654;51.142;14.924;2023-12-20T13:01:26;98381.28;;;8.03;58.99
63500;BME280;49654;51.142;14.924;2023-12-20T13:03:53;98426.94;;;8.25;59.65